sensor_id;sensor_type;location;lat;lon;timestamp;P1;durP1;ratioP1;P2;durP2;ratioP2
14766;SDS011;7475;53.558;9.970;2023-09-12T00:01:03;60.22;;;52.63;;
14766;SDS011;7475;53.558;9.970;2023-09-12T00:03:30;52.13;;;44.58;;
14766;SDS011;7475;53.558;9.970;2023-09-12T00:05:56;48.78;;;40.55;;
14766;SDS011;7475;53.558;9.970;2023-09-12T00:08:21;44.58;;;38.17;;
14766;SDS011;7475;53.558;9.970;2023-09-12T00:10:47;50.08;;;37.20;;
14766;SDS011;7475;53.558;9.970;2023-09-12T00:13:12;40.55;;;34.85;;
14766;SDS011;7475;53.558;9.970;2023-09-12T00:15:37;38.47;;;34.30;;
14766;SDS011;7475;53.558;9.970;2023-09-12T00:18:02;44.50;;;34.47;;
14766;SDS011;7475;53.558;9.970;2023-09-12T00:20:28;44.53;;;32.85;;
14766;SDS011;7475;53.558;9.970;2023-09-12T00:22:53;54.83;;;45.87;;
14766;SDS011;7475;53.558;9.970;2023-09-12T00:25:19;44.00;;;35.25;;
14766;SDS011;7475;53.558;9.970;2023-09-12T00:27:45;42.83;;;33.88;;
14766;SDS011;7475;53.558;9.970;2023-09-12T00:30:10;38.97;;;32.50;;
14766;SDS011;7475;53.558;9.970;2023-09-12T00:32:35;37.65;;;32.00;;
14766;SDS011;7475;53.558;9.970;2023-09-12T00:35:00;35.17;;;30.40;;
14766;SDS011;7475;53.558;9.970;2023-09-12T00:37:25;33.27;;;29.27;;
14766;SDS011;7475;53.558;9.970;2023-09-12T00:39:51;48.17;;;38.27;;
14766;SDS011;7475;53.558;9.970;2023-09-12T00:42:16;35.50;;;29.17;;
14766;SDS011;7475;53.558;9.970;2023-09-12T00:44:41;33.93;;;28.87;;
14766;SDS011;7475;53.558;9.970;2023-09-12T00:47:06;30.93;;;27.00;;
14766;SDS011;7475;53.558;9.970;2023-09-12T00:49:31;34.20;;;28.85;;
14766;SDS011;7475;53.558;9.970;2023-09-12T00:51:57;31.17;;;26.45;;
14766;SDS011;7475;53.558;9.970;2023-09-12T00:54:23;30.85;;;26.83;;
14766;SDS011;7475;53.558;9.970;2023-09-12T00:56:48;31.03;;;27.67;;
14766;SDS011;7475;53.558;9.970;2023-09-12T00:59:14;28.67;;;25.70;;
14766;SDS011;7475;53.558;9.970;2023-09-12T01:01:40;30.25;;;26.05;;
14766;SDS011;7475;53.558;9.970;2023-09-12T01:04:06;32.13;;;25.33;;
14766;SDS011;7475;53.558;9.970;2023-09-12T01:06:31;30.77;;;24.95;;
14766;SDS011;7475;53.558;9.970;2023-09-12T01:08:58;26.73;;;23.83;;
14766;SDS011;7475;53.558;9.970;2023-09-12T01:11:23;28.13;;;23.30;;
14766;SDS011;7475;53.558;9.970;2023-09-12T01:13:49;26.90;;;24.02;;
14766;SDS011;7475;53.558;9.970;2023-09-12T01:16:14;27.63;;;24.73;;
14766;SDS011;7475;53.558;9.970;2023-09-12T01:18:39;28.80;;;23.70;;
14766;SDS011;7475;53.558;9.970;2023-09-12T01:23:48;27.45;;;24.38;;
14766;SDS011;7475;53.558;9.970;2023-09-12T01:28:51;28.17;;;25.05;;
14766;SDS011;7475;53.558;9.970;2023-09-12T01:31:19;27.02;;;23.52;;
14766;SDS011;7475;53.558;9.970;2023-09-12T01:33:44;28.58;;;24.73;;
14766;SDS011;7475;53.558;9.970;2023-09-12T01:36:09;28.70;;;23.27;;
14766;SDS011;7475;53.558;9.970;2023-09-12T01:38:35;27.13;;;24.13;;
14766;SDS011;7475;53.558;9.970;2023-09-12T01:41:00;36.03;;;23.75;;
14766;SDS011;7475;53.558;9.970;2023-09-12T01:43:26;26.58;;;23.88;;
14766;SDS011;7475;53.558;9.970;2023-09-12T01:45:55;30.90;;;25.48;;
14766;SDS011;7475;53.558;9.970;2023-09-12T01:48:23;29.48;;;24.88;;
14766;SDS011;7475;53.558;9.970;2023-09-12T01:50:49;27.48;;;24.10;;
14766;SDS011;7475;53.558;9.970;2023-09-12T01:53:14;30.60;;;23.92;;
14766;SDS011;7475;53.558;9.970;2023-09-12T01:55:41;30.67;;;25.50;;
14766;SDS011;7475;53.558;9.970;2023-09-12T01:58:07;29.42;;;24.88;;
14766;SDS011;7475;53.558;9.970;2023-09-12T02:00:33;30.15;;;25.77;;
14766;SDS011;7475;53.558;9.970;2023-09-12T02:02:58;30.10;;;26.00;;
14766;SDS011;7475;53.558;9.970;2023-09-12T02:05:23;29.83;;;25.30;;
14766;SDS011;7475;53.558;9.970;2023-09-12T02:07:49;29.47;;;26.10;;
14766;SDS011;7475;53.558;9.970;2023-09-12T02:10:14;34.20;;;27.08;;
14766;SDS011;7475;53.558;9.970;2023-09-12T02:12:40;36.22;;;26.42;;
14766;SDS011;7475;53.558;9.970;2023-09-12T02:15:05;32.30;;;26.92;;
14766;SDS011;7475;53.558;9.970;2023-09-12T02:17:30;33.05;;;26.67;;
14766;SDS011;7475;53.558;9.970;2023-09-12T02:19:55;31.63;;;26.73;;
14766;SDS011;7475;53.558;9.970;2023-09-12T02:22:21;30.83;;;25.50;;
14766;SDS011;7475;53.558;9.970;2023-09-12T02:24:46;32.87;;;25.00;;
14766;SDS011;7475;53.558;9.970;2023-09-12T02:27:11;30.47;;;25.57;;
14766;SDS011;7475;53.558;9.970;2023-09-12T02:29:38;31.10;;;24.70;;
14766;SDS011;7475;53.558;9.970;2023-09-12T02:32:03;32.83;;;27.02;;
14766;SDS011;7475;53.558;9.970;2023-09-12T02:34:28;32.33;;;26.98;;
14766;SDS011;7475;53.558;9.970;2023-09-12T02:36:54;30.25;;;25.55;;
14766;SDS011;7475;53.558;9.970;2023-09-12T02:39:19;33.57;;;26.53;;
14766;SDS011;7475;53.558;9.970;2023-09-12T02:41:44;33.50;;;27.03;;
14766;SDS011;7475;53.558;9.970;2023-09-12T02:44:09;33.33;;;27.10;;
14766;SDS011;7475;53.558;9.970;2023-09-12T02:46:36;35.57;;;26.63;;
14766;SDS011;7475;53.558;9.970;2023-09-12T02:49:01;32.45;;;26.90;;
14766;SDS011;7475;53.558;9.970;2023-09-12T02:51:27;34.83;;;27.63;;
14766;SDS011;7475;53.558;9.970;2023-09-12T02:53:52;30.52;;;27.20;;
14766;SDS011;7475;53.558;9.970;2023-09-12T02:56:17;34.87;;;29.77;;
14766;SDS011;7475;53.558;9.970;2023-09-12T02:58:45;33.90;;;28.90;;
14766;SDS011;7475;53.558;9.970;2023-09-12T03:01:14;33.90;;;29.27;;
14766;SDS011;7475;53.558;9.970;2023-09-12T03:03:39;37.25;;;31.02;;
14766;SDS011;7475;53.558;9.970;2023-09-12T03:06:04;40.90;;;33.23;;
14766;SDS011;7475;53.558;9.970;2023-09-12T03:08:29;40.87;;;32.13;;
14766;SDS011;7475;53.558;9.970;2023-09-12T03:10:55;40.23;;;33.23;;
14766;SDS011;7475;53.558;9.970;2023-09-12T03:13:20;45.65;;;35.47;;
14766;SDS011;7475;53.558;9.970;2023-09-12T03:15:45;46.13;;;35.60;;
14766;SDS011;7475;53.558;9.970;2023-09-12T03:18:11;49.40;;;35.67;;
14766;SDS011;7475;53.558;9.970;2023-09-12T03:20:37;49.67;;;36.38;;
14766;SDS011;7475;53.558;9.970;2023-09-12T03:23:03;46.88;;;36.97;;
14766;SDS011;7475;53.558;9.970;2023-09-12T03:25:28;47.83;;;36.97;;
14766;SDS011;7475;53.558;9.970;2023-09-12T03:27:53;46.67;;;37.83;;
14766;SDS011;7475;53.558;9.970;2023-09-12T03:30:19;48.92;;;38.05;;
14766;SDS011;7475;53.558;9.970;2023-09-12T03:32:45;46.25;;;38.00;;
14766;SDS011;7475;53.558;9.970;2023-09-12T03:35:10;47.72;;;38.30;;
14766;SDS011;7475;53.558;9.970;2023-09-12T03:37:35;53.67;;;40.03;;
14766;SDS011;7475;53.558;9.970;2023-09-12T03:40:05;53.60;;;39.92;;
14766;SDS011;7475;53.558;9.970;2023-09-12T03:42:30;51.25;;;38.30;;
14766;SDS011;7475;53.558;9.970;2023-09-12T03:44:55;53.67;;;40.50;;
14766;SDS011;7475;53.558;9.970;2023-09-12T03:47:20;50.77;;;40.10;;
14766;SDS011;7475;53.558;9.970;2023-09-12T03:49:46;55.00;;;41.17;;
14766;SDS011;7475;53.558;9.970;2023-09-12T03:52:11;56.27;;;40.63;;
14766;SDS011;7475;53.558;9.970;2023-09-12T03:54:36;59.90;;;43.53;;
14766;SDS011;7475;53.558;9.970;2023-09-12T03:57:01;55.47;;;40.95;;
14766;SDS011;7475;53.558;9.970;2023-09-12T03:59:27;52.35;;;39.95;;
14766;SDS011;7475;53.558;9.970;2023-09-12T04:01:52;51.13;;;40.60;;
14766;SDS011;7475;53.558;9.970;2023-09-12T04:04:17;54.37;;;41.77;;
14766;SDS011;7475;53.558;9.970;2023-09-12T04:06:42;61.13;;;43.63;;
14766;SDS011;7475;53.558;9.970;2023-09-12T04:09:07;53.35;;;41.20;;
14766;SDS011;7475;53.558;9.970;2023-09-12T04:11:33;63.20;;;44.37;;
14766;SDS011;7475;53.558;9.970;2023-09-12T04:13:58;57.20;;;41.80;;
14766;SDS011;7475;53.558;9.970;2023-09-12T04:16:23;60.33;;;44.40;;
14766;SDS011;7475;53.558;9.970;2023-09-12T04:18:48;57.15;;;42.10;;
14766;SDS011;7475;53.558;9.970;2023-09-12T04:21:13;57.60;;;43.87;;
14766;SDS011;7475;53.558;9.970;2023-09-12T04:23:38;60.33;;;44.70;;
14766;SDS011;7475;53.558;9.970;2023-09-12T04:26:04;60.80;;;45.53;;
14766;SDS011;7475;53.558;9.970;2023-09-12T04:28:29;64.28;;;46.40;;
14766;SDS011;7475;53.558;9.970;2023-09-12T04:31:00;65.10;;;45.40;;
14766;SDS011;7475;53.558;9.970;2023-09-12T04:33:26;72.60;;;49.97;;
14766;SDS011;7475;53.558;9.970;2023-09-12T04:35:51;68.30;;;47.33;;
14766;SDS011;7475;53.558;9.970;2023-09-12T04:38:16;67.47;;;47.90;;
14766;SDS011;7475;53.558;9.970;2023-09-12T04:40:41;66.82;;;49.70;;
14766;SDS011;7475;53.558;9.970;2023-09-12T04:43:06;88.00;;;60.47;;
14766;SDS011;7475;53.558;9.970;2023-09-12T04:45:32;76.57;;;54.10;;
14766;SDS011;7475;53.558;9.970;2023-09-12T04:47:58;68.05;;;47.70;;
14766;SDS011;7475;53.558;9.970;2023-09-12T04:50:23;77.73;;;48.90;;
14766;SDS011;7475;53.558;9.970;2023-09-12T04:52:48;73.45;;;47.15;;
14766;SDS011;7475;53.558;9.970;2023-09-12T04:55:13;76.70;;;50.30;;
14766;SDS011;7475;53.558;9.970;2023-09-12T04:57:38;83.30;;;51.33;;
14766;SDS011;7475;53.558;9.970;2023-09-12T05:00:04;74.05;;;47.65;;
14766;SDS011;7475;53.558;9.970;2023-09-12T05:02:30;79.80;;;52.35;;
14766;SDS011;7475;53.558;9.970;2023-09-12T05:04:55;72.03;;;47.43;;
14766;SDS011;7475;53.558;9.970;2023-09-12T05:07:20;73.40;;;47.73;;
14766;SDS011;7475;53.558;9.970;2023-09-12T05:09:45;76.32;;;50.72;;
14766;SDS011;7475;53.558;9.970;2023-09-12T05:12:11;72.63;;;48.45;;
14766;SDS011;7475;53.558;9.970;2023-09-12T05:14:36;75.85;;;49.17;;
14766;SDS011;7475;53.558;9.970;2023-09-12T05:17:01;79.25;;;50.10;;
14766;SDS011;7475;53.558;9.970;2023-09-12T05:19:29;91.25;;;53.58;;
14766;SDS011;7475;53.558;9.970;2023-09-12T05:21:54;76.65;;;50.17;;
14766;SDS011;7475;53.558;9.970;2023-09-12T05:24:20;76.95;;;48.05;;
14766;SDS011;7475;53.558;9.970;2023-09-12T05:26:45;77.03;;;49.57;;
14766;SDS011;7475;53.558;9.970;2023-09-12T05:29:10;82.70;;;49.63;;
14766;SDS011;7475;53.558;9.970;2023-09-12T05:31:35;72.93;;;49.03;;
14766;SDS011;7475;53.558;9.970;2023-09-12T05:34:00;86.70;;;52.40;;
14766;SDS011;7475;53.558;9.970;2023-09-12T05:36:26;82.80;;;50.53;;
14766;SDS011;7475;53.558;9.970;2023-09-12T05:38:51;90.63;;;52.58;;
14766;SDS011;7475;53.558;9.970;2023-09-12T05:41:16;84.03;;;50.37;;
14766;SDS011;7475;53.558;9.970;2023-09-12T05:43:41;80.95;;;48.67;;
14766;SDS011;7475;53.558;9.970;2023-09-12T05:46:06;80.00;;;50.73;;
14766;SDS011;7475;53.558;9.970;2023-09-12T05:48:32;80.35;;;50.17;;
14766;SDS011;7475;53.558;9.970;2023-09-12T05:50:57;94.00;;;52.37;;
14766;SDS011;7475;53.558;9.970;2023-09-12T05:53:22;97.80;;;53.33;;
14766;SDS011;7475;53.558;9.970;2023-09-12T05:55:47;86.60;;;53.17;;
14766;SDS011;7475;53.558;9.970;2023-09-12T05:58:12;103.85;;;68.35;;
14766;SDS011;7475;53.558;9.970;2023-09-12T06:00:38;95.88;;;55.00;;
14766;SDS011;7475;53.558;9.970;2023-09-12T06:03:03;89.07;;;51.90;;
14766;SDS011;7475;53.558;9.970;2023-09-12T06:05:28;82.72;;;50.55;;
14766;SDS011;7475;53.558;9.970;2023-09-12T06:07:54;85.77;;;53.13;;
14766;SDS011;7475;53.558;9.970;2023-09-12T06:10:19;98.15;;;57.00;;
14766;SDS011;7475;53.558;9.970;2023-09-12T06:12:44;103.63;;;56.63;;
14766;SDS011;7475;53.558;9.970;2023-09-12T06:15:09;89.80;;;52.25;;
14766;SDS011;7475;53.558;9.970;2023-09-12T06:17:35;76.88;;;49.78;;
14766;SDS011;7475;53.558;9.970;2023-09-12T06:20:00;76.68;;;48.85;;
14766;SDS011;7475;53.558;9.970;2023-09-12T06:22:25;75.63;;;48.33;;
14766;SDS011;7475;53.558;9.970;2023-09-12T06:24:51;83.65;;;51.30;;
14766;SDS011;7475;53.558;9.970;2023-09-12T06:27:16;75.18;;;47.65;;
14766;SDS011;7475;53.558;9.970;2023-09-12T06:29:44;79.82;;;48.38;;
14766;SDS011;7475;53.558;9.970;2023-09-12T06:32:09;70.32;;;47.10;;
14766;SDS011;7475;53.558;9.970;2023-09-12T06:34:34;75.03;;;47.55;;
14766;SDS011;7475;53.558;9.970;2023-09-12T06:37:00;67.27;;;45.80;;
14766;SDS011;7475;53.558;9.970;2023-09-12T06:39:25;70.47;;;44.60;;
14766;SDS011;7475;53.558;9.970;2023-09-12T06:41:50;66.18;;;44.22;;
14766;SDS011;7475;53.558;9.970;2023-09-12T06:44:15;71.37;;;51.47;;
14766;SDS011;7475;53.558;9.970;2023-09-12T06:46:40;68.00;;;45.50;;
14766;SDS011;7475;53.558;9.970;2023-09-12T06:49:06;63.55;;;44.38;;
14766;SDS011;7475;53.558;9.970;2023-09-12T06:51:31;62.00;;;43.80;;
14766;SDS011;7475;53.558;9.970;2023-09-12T06:53:56;60.70;;;42.47;;
14766;SDS011;7475;53.558;9.970;2023-09-12T06:56:21;57.80;;;41.75;;
14766;SDS011;7475;53.558;9.970;2023-09-12T06:58:47;63.77;;;42.00;;
14766;SDS011;7475;53.558;9.970;2023-09-12T07:01:12;66.78;;;43.63;;
14766;SDS011;7475;53.558;9.970;2023-09-12T07:03:37;74.50;;;45.20;;
14766;SDS011;7475;53.558;9.970;2023-09-12T07:06:03;67.63;;;43.25;;
14766;SDS011;7475;53.558;9.970;2023-09-12T07:08:31;76.15;;;47.92;;
14766;SDS011;7475;53.558;9.970;2023-09-12T07:10:56;60.38;;;42.13;;
14766;SDS011;7475;53.558;9.970;2023-09-12T07:13:22;56.47;;;41.30;;
14766;SDS011;7475;53.558;9.970;2023-09-12T07:15:47;57.28;;;39.72;;
14766;SDS011;7475;53.558;9.970;2023-09-12T07:18:13;57.43;;;41.63;;
14766;SDS011;7475;53.558;9.970;2023-09-12T07:20:40;54.58;;;38.30;;
14766;SDS011;7475;53.558;9.970;2023-09-12T07:23:05;55.20;;;39.42;;
14766;SDS011;7475;53.558;9.970;2023-09-12T07:25:30;48.40;;;37.33;;
14766;SDS011;7475;53.558;9.970;2023-09-12T07:27:55;46.40;;;36.60;;
14766;SDS011;7475;53.558;9.970;2023-09-12T07:30:20;46.47;;;36.37;;
14766;SDS011;7475;53.558;9.970;2023-09-12T07:32:46;50.27;;;36.97;;
14766;SDS011;7475;53.558;9.970;2023-09-12T07:35:11;47.33;;;37.10;;
14766;SDS011;7475;53.558;9.970;2023-09-12T07:37:36;55.10;;;37.25;;
14766;SDS011;7475;53.558;9.970;2023-09-12T07:40:01;57.35;;;38.15;;
14766;SDS011;7475;53.558;9.970;2023-09-12T07:42:34;56.40;;;37.10;;
14766;SDS011;7475;53.558;9.970;2023-09-12T07:44:59;54.63;;;38.08;;
14766;SDS011;7475;53.558;9.970;2023-09-12T07:47:25;54.58;;;41.08;;
14766;SDS011;7475;53.558;9.970;2023-09-12T07:49:53;50.83;;;37.80;;
14766;SDS011;7475;53.558;9.970;2023-09-12T07:52:18;47.63;;;35.30;;
14766;SDS011;7475;53.558;9.970;2023-09-12T07:54:44;49.37;;;36.17;;
14766;SDS011;7475;53.558;9.970;2023-09-12T07:57:09;43.05;;;35.42;;
14766;SDS011;7475;53.558;9.970;2023-09-12T07:59:34;42.73;;;34.43;;
14766;SDS011;7475;53.558;9.970;2023-09-12T08:02:00;43.90;;;35.55;;
14766;SDS011;7475;53.558;9.970;2023-09-12T08:04:25;38.38;;;32.67;;
14766;SDS011;7475;53.558;9.970;2023-09-12T08:06:50;36.33;;;31.17;;
14766;SDS011;7475;53.558;9.970;2023-09-12T08:09:15;35.25;;;31.48;;
14766;SDS011;7475;53.558;9.970;2023-09-12T08:11:40;33.60;;;29.10;;
14766;SDS011;7475;53.558;9.970;2023-09-12T08:14:06;39.87;;;34.57;;
14766;SDS011;7475;53.558;9.970;2023-09-12T08:16:31;30.95;;;26.65;;
14766;SDS011;7475;53.558;9.970;2023-09-12T08:18:56;31.50;;;28.10;;
14766;SDS011;7475;53.558;9.970;2023-09-12T08:21:22;33.20;;;27.40;;
14766;SDS011;7475;53.558;9.970;2023-09-12T08:23:47;31.25;;;27.80;;
14766;SDS011;7475;53.558;9.970;2023-09-12T08:26:12;30.88;;;27.60;;
14766;SDS011;7475;53.558;9.970;2023-09-12T08:28:37;34.77;;;28.73;;
14766;SDS011;7475;53.558;9.970;2023-09-12T08:31:02;28.13;;;25.53;;
14766;SDS011;7475;53.558;9.970;2023-09-12T08:33:28;28.70;;;25.65;;
14766;SDS011;7475;53.558;9.970;2023-09-12T08:35:53;29.93;;;26.80;;
14766;SDS011;7475;53.558;9.970;2023-09-12T08:38:18;30.90;;;27.67;;
14766;SDS011;7475;53.558;9.970;2023-09-12T08:40:50;27.77;;;24.65;;
14766;SDS011;7475;53.558;9.970;2023-09-12T08:43:15;27.25;;;24.38;;
14766;SDS011;7475;53.558;9.970;2023-09-12T08:45:40;27.75;;;24.90;;
14766;SDS011;7475;53.558;9.970;2023-09-12T08:48:08;27.05;;;24.27;;
14766;SDS011;7475;53.558;9.970;2023-09-12T08:50:34;26.60;;;24.10;;
14766;SDS011;7475;53.558;9.970;2023-09-12T08:53:00;25.80;;;23.20;;
14766;SDS011;7475;53.558;9.970;2023-09-12T08:55:25;26.85;;;24.15;;
14766;SDS011;7475;53.558;9.970;2023-09-12T08:57:50;27.10;;;24.35;;
14766;SDS011;7475;53.558;9.970;2023-09-12T09:00:16;22.30;;;20.08;;
14766;SDS011;7475;53.558;9.970;2023-09-12T09:02:43;25.85;;;23.38;;
14766;SDS011;7475;53.558;9.970;2023-09-12T09:05:08;26.88;;;24.13;;
14766;SDS011;7475;53.558;9.970;2023-09-12T09:07:34;29.58;;;24.60;;
14766;SDS011;7475;53.558;9.970;2023-09-12T09:10:03;30.73;;;25.85;;
14766;SDS011;7475;53.558;9.970;2023-09-12T09:12:30;26.42;;;23.83;;
14766;SDS011;7475;53.558;9.970;2023-09-12T09:14:55;25.23;;;22.55;;
14766;SDS011;7475;53.558;9.970;2023-09-12T09:17:20;21.97;;;19.77;;
14766;SDS011;7475;53.558;9.970;2023-09-12T09:19:46;18.95;;;17.00;;
14766;SDS011;7475;53.558;9.970;2023-09-12T09:22:12;18.75;;;16.92;;
14766;SDS011;7475;53.558;9.970;2023-09-12T09:24:38;19.63;;;17.52;;
14766;SDS011;7475;53.558;9.970;2023-09-12T09:27:03;18.20;;;16.40;;
14766;SDS011;7475;53.558;9.970;2023-09-12T09:29:28;19.42;;;17.63;;
14766;SDS011;7475;53.558;9.970;2023-09-12T09:31:59;17.88;;;15.85;;
14766;SDS011;7475;53.558;9.970;2023-09-12T09:34:24;17.20;;;15.50;;
14766;SDS011;7475;53.558;9.970;2023-09-12T09:36:52;17.55;;;15.85;;
14766;SDS011;7475;53.558;9.970;2023-09-12T09:39:19;18.80;;;17.08;;
14766;SDS011;7475;53.558;9.970;2023-09-12T09:41:47;19.85;;;17.55;;
14766;SDS011;7475;53.558;9.970;2023-09-12T09:44:13;19.63;;;17.50;;
14766;SDS011;7475;53.558;9.970;2023-09-12T09:46:39;18.30;;;16.33;;
14766;SDS011;7475;53.558;9.970;2023-09-12T09:49:09;16.35;;;14.70;;
14766;SDS011;7475;53.558;9.970;2023-09-12T09:51:40;15.63;;;14.13;;
14766;SDS011;7475;53.558;9.970;2023-09-12T09:54:07;16.58;;;15.00;;
14766;SDS011;7475;53.558;9.970;2023-09-12T09:56:32;17.85;;;15.77;;
14766;SDS011;7475;53.558;9.970;2023-09-12T09:59:09;18.60;;;16.80;;
14766;SDS011;7475;53.558;9.970;2023-09-12T10:01:39;19.00;;;17.20;;
14766;SDS011;7475;53.558;9.970;2023-09-12T10:04:05;16.90;;;15.30;;
14766;SDS011;7475;53.558;9.970;2023-09-12T10:06:30;17.50;;;15.82;;
14766;SDS011;7475;53.558;9.970;2023-09-12T10:08:56;19.55;;;16.98;;
14766;SDS011;7475;53.558;9.970;2023-09-12T10:11:23;19.17;;;17.25;;
14766;SDS011;7475;53.558;9.970;2023-09-12T10:13:55;16.95;;;15.02;;
14766;SDS011;7475;53.558;9.970;2023-09-12T10:16:24;16.90;;;15.15;;
14766;SDS011;7475;53.558;9.970;2023-09-12T10:19:03;18.05;;;16.25;;
14766;SDS011;7475;53.558;9.970;2023-09-12T10:21:30;20.20;;;18.13;;
14766;SDS011;7475;53.558;9.970;2023-09-12T10:23:56;21.33;;;19.13;;
14766;SDS011;7475;53.558;9.970;2023-09-12T10:26:22;20.40;;;18.23;;
14766;SDS011;7475;53.558;9.970;2023-09-12T10:28:48;21.50;;;19.42;;
14766;SDS011;7475;53.558;9.970;2023-09-12T10:31:14;21.90;;;19.52;;
14766;SDS011;7475;53.558;9.970;2023-09-12T10:33:40;22.67;;;20.25;;
14766;SDS011;7475;53.558;9.970;2023-09-12T10:36:08;22.15;;;19.98;;
14766;SDS011;7475;53.558;9.970;2023-09-12T10:38:33;22.88;;;20.73;;
14766;SDS011;7475;53.558;9.970;2023-09-12T10:41:01;23.20;;;21.08;;
14766;SDS011;7475;53.558;9.970;2023-09-12T10:43:28;23.42;;;21.13;;
14766;SDS011;7475;53.558;9.970;2023-09-12T10:45:53;23.10;;;20.90;;
14766;SDS011;7475;53.558;9.970;2023-09-12T10:48:19;23.83;;;21.10;;
14766;SDS011;7475;53.558;9.970;2023-09-12T10:50:45;22.88;;;20.58;;
14766;SDS011;7475;53.558;9.970;2023-09-12T10:53:16;23.85;;;21.38;;
14766;SDS011;7475;53.558;9.970;2023-09-12T10:55:41;24.63;;;22.25;;
14766;SDS011;7475;53.558;9.970;2023-09-12T10:58:09;23.75;;;21.35;;
14766;SDS011;7475;53.558;9.970;2023-09-12T11:00:35;24.10;;;21.70;;
14766;SDS011;7475;53.558;9.970;2023-09-12T11:05:53;25.58;;;23.17;;
14766;SDS011;7475;53.558;9.970;2023-09-12T11:08:18;24.60;;;22.25;;
14766;SDS011;7475;53.558;9.970;2023-09-12T11:10:44;25.48;;;22.90;;
14766;SDS011;7475;53.558;9.970;2023-09-12T11:13:17;24.55;;;22.23;;
14766;SDS011;7475;53.558;9.970;2023-09-12T11:16:09;28.10;;;25.23;;
14766;SDS011;7475;53.558;9.970;2023-09-12T11:18:29;28.80;;;26.00;;
14766;SDS011;7475;53.558;9.970;2023-09-12T11:21:00;27.90;;;25.10;;
14766;SDS011;7475;53.558;9.970;2023-09-12T11:23:28;29.42;;;26.63;;
14766;SDS011;7475;53.558;9.970;2023-09-12T11:26:05;30.30;;;26.73;;
14766;SDS011;7475;53.558;9.970;2023-09-12T11:28:31;28.08;;;25.23;;
14766;SDS011;7475;53.558;9.970;2023-09-12T11:30:57;29.33;;;26.33;;
14766;SDS011;7475;53.558;9.970;2023-09-12T11:33:23;28.83;;;25.95;;
14766;SDS011;7475;53.558;9.970;2023-09-12T11:35:48;29.00;;;26.13;;
14766;SDS011;7475;53.558;9.970;2023-09-12T11:38:19;30.45;;;27.45;;
14766;SDS011;7475;53.558;9.970;2023-09-12T11:40:51;29.85;;;26.85;;
14766;SDS011;7475;53.558;9.970;2023-09-12T11:43:25;27.30;;;24.58;;
14766;SDS011;7475;53.558;9.970;2023-09-12T11:45:51;26.48;;;23.77;;
14766;SDS011;7475;53.558;9.970;2023-09-12T11:48:17;26.80;;;23.98;;
14766;SDS011;7475;53.558;9.970;2023-09-12T11:50:42;27.35;;;24.55;;
14766;SDS011;7475;53.558;9.970;2023-09-12T11:53:13;26.75;;;23.65;;
14766;SDS011;7475;53.558;9.970;2023-09-12T11:55:48;24.90;;;22.60;;
14766;SDS011;7475;53.558;9.970;2023-09-12T11:58:16;24.63;;;22.10;;
14766;SDS011;7475;53.558;9.970;2023-09-12T12:00:49;24.23;;;21.92;;
14766;SDS011;7475;53.558;9.970;2023-09-12T12:03:14;20.55;;;18.55;;
14766;SDS011;7475;53.558;9.970;2023-09-12T12:05:40;20.92;;;18.77;;
14766;SDS011;7475;53.558;9.970;2023-09-12T12:08:06;20.30;;;18.33;;
14766;SDS011;7475;53.558;9.970;2023-09-12T12:10:32;21.60;;;19.52;;
14766;SDS011;7475;53.558;9.970;2023-09-12T12:12:57;21.13;;;19.07;;
14766;SDS011;7475;53.558;9.970;2023-09-12T12:15:22;20.83;;;18.53;;
14766;SDS011;7475;53.558;9.970;2023-09-12T12:17:47;20.38;;;18.27;;
14766;SDS011;7475;53.558;9.970;2023-09-12T12:20:13;20.53;;;18.63;;
14766;SDS011;7475;53.558;9.970;2023-09-12T12:22:38;20.23;;;18.27;;
14766;SDS011;7475;53.558;9.970;2023-09-12T12:25:07;19.45;;;17.35;;
14766;SDS011;7475;53.558;9.970;2023-09-12T12:27:37;20.70;;;18.80;;
14766;SDS011;7475;53.558;9.970;2023-09-12T12:30:03;19.10;;;17.33;;
14766;SDS011;7475;53.558;9.970;2023-09-12T12:32:29;21.05;;;18.98;;
14766;SDS011;7475;53.558;9.970;2023-09-12T12:34:54;20.07;;;18.27;;
14766;SDS011;7475;53.558;9.970;2023-09-12T12:37:19;20.30;;;18.37;;
14766;SDS011;7475;53.558;9.970;2023-09-12T12:39:44;21.45;;;19.35;;
14766;SDS011;7475;53.558;9.970;2023-09-12T12:42:10;20.42;;;18.52;;
14766;SDS011;7475;53.558;9.970;2023-09-12T12:44:35;20.30;;;18.35;;
14766;SDS011;7475;53.558;9.970;2023-09-12T12:47:03;17.58;;;15.95;;
14766;SDS011;7475;53.558;9.970;2023-09-12T12:49:29;18.70;;;16.98;;
14766;SDS011;7475;53.558;9.970;2023-09-12T12:52:00;19.17;;;17.10;;
14766;SDS011;7475;53.558;9.970;2023-09-12T12:54:30;20.13;;;18.23;;
14766;SDS011;7475;53.558;9.970;2023-09-12T12:56:56;19.98;;;18.02;;
14766;SDS011;7475;53.558;9.970;2023-09-12T12:59:22;20.20;;;18.25;;
14766;SDS011;7475;53.558;9.970;2023-09-12T13:01:47;20.47;;;18.57;;
14766;SDS011;7475;53.558;9.970;2023-09-12T13:04:12;19.83;;;18.00;;
14766;SDS011;7475;53.558;9.970;2023-09-12T13:06:37;20.33;;;18.47;;
14766;SDS011;7475;53.558;9.970;2023-09-12T13:09:03;20.02;;;18.23;;
14766;SDS011;7475;53.558;9.970;2023-09-12T13:11:34;19.55;;;17.58;;
14766;SDS011;7475;53.558;9.970;2023-09-12T13:14:02;19.35;;;17.52;;
14766;SDS011;7475;53.558;9.970;2023-09-12T13:16:33;19.10;;;17.25;;
14766;SDS011;7475;53.558;9.970;2023-09-12T13:18:59;18.55;;;16.90;;
14766;SDS011;7475;53.558;9.970;2023-09-12T13:21:24;19.07;;;17.33;;
14766;SDS011;7475;53.558;9.970;2023-09-12T13:23:50;17.38;;;15.82;;
14766;SDS011;7475;53.558;9.970;2023-09-12T13:26:15;18.67;;;16.87;;
14766;SDS011;7475;53.558;9.970;2023-09-12T13:28:40;17.20;;;15.45;;
14766;SDS011;7475;53.558;9.970;2023-09-12T13:31:06;16.27;;;14.68;;
14766;SDS011;7475;53.558;9.970;2023-09-12T13:33:31;16.17;;;14.75;;
14766;SDS011;7475;53.558;9.970;2023-09-12T13:35:57;17.77;;;16.10;;
14766;SDS011;7475;53.558;9.970;2023-09-12T13:38:22;19.30;;;17.73;;
14766;SDS011;7475;53.558;9.970;2023-09-12T13:40:48;17.85;;;16.25;;
14766;SDS011;7475;53.558;9.970;2023-09-12T13:43:13;17.13;;;15.63;;
14766;SDS011;7475;53.558;9.970;2023-09-12T13:45:39;20.58;;;18.88;;
14766;SDS011;7475;53.558;9.970;2023-09-12T13:48:04;18.73;;;17.23;;
14766;SDS011;7475;53.558;9.970;2023-09-12T13:50:30;18.67;;;16.77;;
14766;SDS011;7475;53.558;9.970;2023-09-12T13:52:59;19.73;;;17.92;;
14766;SDS011;7475;53.558;9.970;2023-09-12T13:55:25;16.45;;;14.90;;
14766;SDS011;7475;53.558;9.970;2023-09-12T13:57:50;17.92;;;16.30;;
14766;SDS011;7475;53.558;9.970;2023-09-12T14:00:15;17.50;;;15.88;;
14766;SDS011;7475;53.558;9.970;2023-09-12T14:02:41;17.88;;;16.08;;
14766;SDS011;7475;53.558;9.970;2023-09-12T14:05:06;17.13;;;15.47;;
14766;SDS011;7475;53.558;9.970;2023-09-12T14:07:31;17.67;;;15.88;;
14766;SDS011;7475;53.558;9.970;2023-09-12T14:09:56;17.80;;;16.23;;
14766;SDS011;7475;53.558;9.970;2023-09-12T14:12:22;17.80;;;16.27;;
14766;SDS011;7475;53.558;9.970;2023-09-12T14:14:48;18.10;;;16.48;;
14766;SDS011;7475;53.558;9.970;2023-09-12T14:17:13;18.40;;;16.75;;
14766;SDS011;7475;53.558;9.970;2023-09-12T14:19:38;19.40;;;17.42;;
14766;SDS011;7475;53.558;9.970;2023-09-12T14:22:04;18.13;;;16.63;;
14766;SDS011;7475;53.558;9.970;2023-09-12T14:24:29;18.07;;;16.47;;
14766;SDS011;7475;53.558;9.970;2023-09-12T14:26:54;17.20;;;15.80;;
14766;SDS011;7475;53.558;9.970;2023-09-12T14:29:19;16.83;;;15.33;;
14766;SDS011;7475;53.558;9.970;2023-09-12T14:31:44;17.35;;;15.85;;
14766;SDS011;7475;53.558;9.970;2023-09-12T14:34:15;18.63;;;17.02;;